Time;durP1;ratioP1;P1;durP2;ratioP2;P2;SDS_P1;SDS_P2;PMS_P1;PMS_P2;Temp;Humidity;BMP_temperature;BMP_pressure;BME280_temperature;BME280_humidity;BME280_pressure;Samples;Min_cycle;Max_cycle;Signal;HPM_P1;HPM_P2
2023/05/01 00:00:46;;;;;;;4.43;2.40;;;;;;;11.47;76.41;101825.88;5039119;28;20060;-73
2023/05/01 00:03:13;;;;;;;3.08;2.28;;;;;;;11.42;76.56;101819.88;5038616;28;20113;-73
2023/05/01 00:05:38;;;;;;;2.78;2.40;;;;;;;11.40;76.59;101819.91;5039629;28;20063;-73
2023/05/01 00:08:04;;;;;;;3.35;2.08;;;;;;;11.37;76.88;101817.41;5038936;28;20256;-73
2023/05/01 00:10:30;;;;;;;3.55;2.70;;;;;;;11.36;76.88;101817.44;5021746;28;20041;-73
2023/05/01 00:12:55;;;;;;;2.70;2.40;;;;;;;11.35;76.78;101819.22;5020465;28;20095;-73
2023/05/01 00:15:20;;;;;;;2.75;2.50;;;;;;;11.34;76.98;101807.00;5019112;28;20045;-73
2023/05/01 00:17:46;;;;;;;2.83;2.35;;;;;;;11.34;76.75;101807.00;5018183;28;20048;-73
2023/05/01 00:20:12;;;;;;;3.72;2.40;;;;;;;11.32;76.79;101799.16;5020016;28;20037;-73
2023/05/01 00:22:38;;;;;;;2.97;2.70;;;;;;;11.33;77.00;101813.13;5035084;28;20113;-73
2023/05/01 00:25:04;;;;;;;3.08;2.53;;;;;;;11.30;77.21;101798.34;5020159;28;20037;-73
2023/05/01 00:27:29;;;;;;;4.30;2.90;;;;;;;11.29;77.26;101793.16;5023018;28;20048;-73
2023/05/01 00:29:55;;;;;;;2.70;2.50;;;;;;;11.28;77.30;101800.16;5038378;28;20045;-73
2023/05/01 00:32:20;;;;;;;2.92;2.70;;;;;;;11.28;77.25;101799.31;5025870;28;20050;-73
2023/05/01 00:34:47;;;;;;;2.08;1.98;;;;;;;11.27;77.44;101795.81;5019599;28;20056;-73
2023/05/01 00:37:12;;;;;;;3.03;2.58;;;;;;;11.29;77.47;101790.53;5018649;28;20034;-73
2023/05/01 00:39:38;;;;;;;2.40;2.30;;;;;;;11.29;77.56;101787.91;5019726;28;20349;-73
2023/05/01 00:42:03;;;;;;;3.00;2.10;;;;;;;11.30;77.28;101790.50;5020259;28;20105;-73
2023/05/01 00:44:29;;;;;;;3.95;2.95;;;;;;;11.30;77.14;101785.25;5020311;28;20229;-73
2023/05/01 00:46:57;;;;;;;2.78;2.58;;;;;;;11.29;77.56;101780.88;5018031;28;20042;-73
2023/05/01 00:49:22;;;;;;;2.92;2.72;;;;;;;11.28;77.83;101776.56;5020486;28;20061;-73
2023/05/01 00:51:52;;;;;;;5.25;2.83;;;;;;;11.26;77.82;101775.75;5031479;28;20029;-73
2023/05/01 00:54:18;;;;;;;3.40;3.10;;;;;;;11.24;78.20;101771.44;5039107;28;20036;-73
2023/05/01 00:56:45;;;;;;;4.80;2.90;;;;;;;11.24;78.33;101763.56;5025236;28;20350;-73
2023/05/01 00:59:11;;;;;;;3.17;2.97;;;;;;;11.24;77.96;101758.31;5026078;28;20378;-73
2023/05/01 01:01:37;;;;;;;3.47;3.17;;;;;;;11.22;78.12;101753.13;5029606;28;20029;-73
2023/05/01 01:04:02;;;;;;;3.15;2.85;;;;;;;11.21;78.45;101745.31;5037066;28;20065;-73
2023/05/01 01:06:56;;;;;;;3.60;2.70;;;;;;;11.20;78.58;101744.44;5029391;28;20054;-73
2023/05/01 01:09:33;;;;;;;3.30;3.00;;;;;;;11.20;78.68;101741.81;5038269;28;20032;-73
2023/05/01 01:12:33;;;;;;;3.35;3.08;;;;;;;11.18;78.74;101732.28;5024445;28;20088;-73
2023/05/01 01:15:05;;;;;;;3.17;2.90;;;;;;;11.17;78.90;101726.19;5017725;28;20063;-73
2023/05/01 01:17:38;;;;;;;4.22;3.60;;;;;;;11.14;79.19;101723.66;5019472;28;20264;-73
2023/05/01 01:20:10;;;;;;;3.30;2.90;;;;;;;11.10;79.34;101725.50;5018003;28;20219;-73
2023/05/01 01:22:38;;;;;;;3.22;2.90;;;;;;;11.09;79.67;101723.78;5019539;28;20336;-73
2023/05/01 01:25:49;;;;;;;4.93;3.15;;;;;;;11.08;79.24;101715.97;5018965;28;20089;-73
2023/05/01 01:28:50;;;;;;;5.20;3.15;;;;;;;11.03;79.65;101712.63;5018124;28;20037;-73
2023/05/01 01:31:29;;;;;;;3.03;2.75;;;;;;;11.00;79.85;101707.47;5019378;28;20060;-73
2023/05/01 01:33:58;;;;;;;3.15;2.83;;;;;;;10.99;79.96;101719.72;5018640;28;20065;-73
2023/05/01 01:36:46;;;;;;;3.10;2.80;;;;;;;11.01;79.60;101722.31;5015936;28;20030;-73
2023/05/01 01:39:26;;;;;;;3.27;3.00;;;;;;;10.99;79.35;101711.84;5012587;28;20351;-73
2023/05/01 01:41:53;;;;;;;3.00;2.70;;;;;;;10.98;79.38;101704.03;5011015;28;20308;-73
2023/05/01 01:44:42;;;;;;;3.75;3.00;;;;;;;10.97;79.08;101697.94;5018575;28;20108;-73
2023/05/01 01:47:09;;;;;;;;;;;;;;;10.94;79.36;101693.63;5018953;28;20080;-73
2023/05/01 01:49:38;;;;;;;3.08;2.40;;;;;;;10.97;79.52;101689.19;5018954;28;19906;-73
2023/05/01 01:52:06;;;;;;;3.28;2.53;;;;;;;10.96;79.23;101688.34;5018667;28;20041;-73
2023/05/01 01:54:36;;;;;;;2.72;2.47;;;;;;;10.95;79.08;101689.25;5018971;28;20410;-73
2023/05/01 01:57:03;;;;;;;4.13;3.38;;;;;;;10.94;78.89;101680.53;5018868;28;20068;-73
2023/05/01 01:59:32;;;;;;;3.20;2.95;;;;;;;10.93;79.00;101691.03;5019188;28;20083;-73
2023/05/01 02:02:00;;;;;;;2.70;2.50;;;;;;;10.93;79.30;101689.31;5018688;28;20048;-73
2023/05/01 02:04:26;;;;;;;2.65;2.42;;;;;;;10.95;79.41;101689.25;5018288;28;20044;-73
2023/05/01 02:06:57;;;;;;;2.75;2.55;;;;;;;10.97;78.99;101681.34;5018195;28;20518;-73
2023/05/01 02:09:23;;;;;;;3.08;2.63;;;;;;;10.98;78.97;101675.19;5017185;28;20061;-73
2023/05/01 02:11:52;;;;;;;3.75;2.40;;;;;;;10.98;78.95;101673.44;5018801;28;20041;-73
2023/05/01 02:14:19;;;;;;;2.75;2.55;;;;;;;10.98;78.86;101673.44;5018780;28;20041;-73
2023/05/01 02:16:46;;;;;;;2.30;2.20;;;;;;;11.00;78.56;101668.16;5018504;28;20046;-73
2023/05/01 02:19:14;;;;;;;2.00;1.80;;;;;;;11.01;78.69;101664.63;5018024;28;20229;-73
2023/05/01 02:21:41;;;;;;;2.00;1.90;;;;;;;11.00;78.60;101662.91;5018145;28;20038;-73
2023/05/01 02:24:09;;;;;;;2.13;2.00;;;;;;;11.00;78.62;101652.44;5015685;28;20037;-73
2023/05/01 02:26:41;;;;;;;4.45;3.03;;;;;;;10.99;78.52;101653.31;5014925;28;20037;-73
2023/05/01 02:29:07;;;;;;;2.35;2.15;;;;;;;10.99;78.54;101655.94;5014370;28;20030;-73
2023/05/01 02:31:33;;;;;;;2.20;2.10;;;;;;;10.98;78.46;101646.38;5014540;28;20132;-73
2023/05/01 02:33:58;;;;;;;2.28;2.10;;;;;;;10.98;78.73;101646.38;5014612;28;20056;-73
2023/05/01 02:36:23;;;;;;;2.55;2.38;;;;;;;10.96;78.48;101638.56;5013410;28;20038;-73
2023/05/01 02:38:50;;;;;;;2.65;2.45;;;;;;;10.95;78.61;101636.81;5013537;28;20042;-73
2023/05/01 02:41:17;;;;;;;2.47;2.28;;;;;;;10.95;78.56;101639.44;5015953;28;20044;-73
2023/05/01 02:43:45;;;;;;;2.53;2.35;;;;;;;10.95;78.59;101637.69;5014567;28;20079;-73
2023/05/01 02:46:13;;;;;;;2.88;2.60;;;;;;;10.95;78.73;101639.44;5015670;28;20068;-74
2023/05/01 02:48:39;;;;;;;3.78;2.22;;;;;;;10.94;78.81;101632.50;5014638;28;20362;-74
2023/05/01 02:51:05;;;;;;;2.30;2.20;;;;;;;10.92;78.71;101632.53;5014285;28;20340;-74
2023/05/01 02:53:32;;;;;;;2.60;2.40;;;;;;;10.91;78.72;101625.59;5014925;28;20073;-74
2023/05/01 02:55:58;;;;;;;2.55;2.35;;;;;;;10.90;79.00;101623.88;5013559;28;20340;-73
2023/05/01 02:58:23;;;;;;;2.63;2.38;;;;;;;10.90;78.71;101617.78;5014658;28;20033;-73
2023/05/01 03:00:49;;;;;;;2.30;2.10;;;;;;;10.90;78.78;101615.16;5014251;28;20112;-73
2023/05/01 03:03:15;;;;;;;2.50;2.30;;;;;;;10.89;78.69;101610.81;5014563;28;20037;-73
2023/05/01 03:05:41;;;;;;;2.60;2.20;;;;;;;10.89;78.62;101603.78;5013854;28;20064;-73
2023/05/01 03:08:06;;;;;;;3.05;2.00;;;;;;;10.88;78.41;101609.97;5013444;28;20042;-73
2023/05/01 03:10:32;;;;;;;2.72;2.30;;;;;;;10.88;78.64;101609.09;5014412;28;20312;-73
2023/05/01 03:12:58;;;;;;;2.53;2.33;;;;;;;10.87;78.52;101599.50;5015253;28;20056;-73
2023/05/01 03:15:23;;;;;;;2.45;2.22;;;;;;;10.85;78.41;101602.19;4996140;28;20045;-73
2023/05/01 03:17:48;;;;;;;3.00;2.70;;;;;;;10.86;78.64;101605.66;5014386;28;20341;-73
2023/05/01 03:20:14;;;;;;;3.58;2.60;;;;;;;10.84;78.96;101600.47;5014266;28;20309;-73
2023/05/01 03:22:40;;;;;;;2.67;2.42;;;;;;;10.83;78.81;101592.66;5014193;28;20034;-73
2023/05/01 03:25:06;;;;;;;2.50;2.40;;;;;;;10.82;78.86;101591.78;5013562;28;20060;-73
2023/05/01 03:27:31;;;;;;;2.70;2.50;;;;;;;10.81;78.77;101581.38;5014502;28;20048;-73
2023/05/01 03:29:57;;;;;;;3.08;2.58;;;;;;;10.81;78.78;101576.13;5014027;28;20080;-73
2023/05/01 03:32:22;;;;;;;2.60;2.40;;;;;;;10.79;78.98;101584.03;5013818;28;20046;-73
2023/05/01 03:34:48;;;;;;;2.60;2.40;;;;;;;10.78;78.87;101579.69;5013982;28;20259;-73
2023/05/01 03:37:14;;;;;;;2.42;2.22;;;;;;;10.78;78.67;101574.44;5015038;28;20061;-73
2023/05/01 03:39:40;;;;;;;2.60;2.40;;;;;;;10.76;78.96;101576.25;5013917;28;20042;-73
2023/05/01 03:42:05;;;;;;;3.22;2.47;;;;;;;10.78;78.82;101576.22;5013977;28;20337;-73
2023/05/01 03:44:31;;;;;;;2.78;2.35;;;;;;;10.76;78.63;101573.63;5014188;28;20129;-73
2023/05/01 03:46:56;;;;;;;2.40;2.20;;;;;;;10.75;78.80;101570.16;5014265;28;20041;-73
2023/05/01 03:49:22;;;;;;;2.00;1.80;;;;;;;10.75;78.82;101564.91;5014001;28;20249;-73
2023/05/01 03:51:48;;;;;;;2.50;2.30;;;;;;;10.74;78.86;101562.34;5014055;28;20040;-73
2023/05/01 03:54:13;;;;;;;2.53;2.35;;;;;;;10.74;78.93;101564.97;5013865;28;20064;-73
2023/05/01 03:56:38;;;;;;;2.30;2.17;;;;;;;10.74;78.60;101578.06;5013940;28;20448;-73
2023/05/01 03:59:04;;;;;;;4.13;2.65;;;;;;;10.73;78.94;101574.59;5013959;28;20244;-73
2023/05/01 04:01:32;;;;;;;2.88;2.33;;;;;;;10.73;78.86;101571.09;5014429;28;21173;-73
2023/05/01 04:03:58;;;;;;;3.30;2.70;;;;;;;10.73;78.83;101573.72;5017285;28;20044;-73
2023/05/01 04:06:24;;;;;;;2.78;2.50;;;;;;;10.71;78.92;101560.69;5017333;28;20234;-73
2023/05/01 04:08:49;;;;;;;2.50;2.30;;;;;;;10.71;78.84;101565.03;5016658;28;20030;-73
2023/05/01 04:11:14;;;;;;;2.60;2.38;;;;;;;10.70;78.86;101558.97;5017215;28;20113;-73
2023/05/01 04:13:40;;;;;;;3.67;2.80;;;;;;;10.70;79.05;101560.72;5018059;28;20049;-73
2023/05/01 04:16:06;;;;;;;3.40;2.88;;;;;;;10.70;78.67;101558.09;5017817;28;20048;-73
2023/05/01 04:18:31;;;;;;;3.30;3.00;;;;;;;10.69;78.88;101559.00;5017448;28;20141;-73
2023/05/01 04:20:56;;;;;;;4.40;3.33;;;;;;;10.67;78.91;101555.56;5016901;28;20080;-73
2023/05/01 04:23:22;;;;;;;3.25;2.95;;;;;;;10.67;78.87;101559.03;5016447;28;20356;-73
2023/05/01 04:25:47;;;;;;;2.80;2.60;;;;;;;10.66;78.88;101548.59;5016456;28;20383;-73
2023/05/01 04:28:13;;;;;;;2.30;2.20;;;;;;;10.67;78.81;101552.94;5016937;28;20037;-73
2023/05/01 04:30:38;;;;;;;3.03;2.65;;;;;;;10.67;78.90;101551.19;5015985;28;20037;-73
2023/05/01 04:33:10;;;;;;;2.67;2.33;;;;;;;10.68;78.96;101554.69;5017303;28;20032;-73
2023/05/01 04:35:38;;;;;;;2.88;2.67;;;;;;;10.67;78.74;101555.56;5016707;28;20332;-73
2023/05/01 04:38:04;;;;;;;2.50;2.30;;;;;;;10.67;79.03;101552.94;5017564;28;20264;-73
2023/05/01 04:40:30;;;;;;;2.63;2.35;;;;;;;10.67;78.93;101553.78;5017168;28;20046;-73
2023/05/01 04:42:55;;;;;;;2.50;2.30;;;;;;;10.68;78.70;101554.69;5017186;28;20348;-73
2023/05/01 04:45:21;;;;;;;2.50;2.30;;;;;;;10.67;78.95;101555.56;5016368;28;20045;-74
2023/05/01 04:47:46;;;;;;;3.03;2.63;;;;;;;10.68;78.76;101552.06;5016742;28;20052;-74
2023/05/01 04:50:12;;;;;;;3.17;2.60;;;;;;;10.67;78.79;101556.41;5016643;28;20088;-73
2023/05/01 04:52:37;;;;;;;3.25;2.95;;;;;;;10.68;78.90;101549.44;5016385;28;20045;-73
2023/05/01 04:55:03;;;;;;;3.35;3.05;;;;;;;10.68;79.24;101549.44;5016526;28;20410;-73
2023/05/01 04:57:28;;;;;;;3.08;2.75;;;;;;;10.65;79.32;101545.13;5016268;28;20124;-73
2023/05/01 04:59:54;;;;;;;6.30;3.40;;;;;;;10.66;79.42;101545.97;5015967;28;20042;-73
2023/05/01 05:02:19;;;;;;;3.80;3.40;;;;;;;10.63;79.24;101541.69;5016719;28;20342;-73
2023/05/01 05:04:45;;;;;;;4.85;3.70;;;;;;;10.62;79.57;101546.97;5021938;28;20367;-73
2023/05/01 05:07:10;;;;;;;2.92;2.72;;;;;;;10.62;79.79;101552.22;5018437;28;20034;-73
2023/05/01 05:09:35;;;;;;;4.00;2.50;;;;;;;10.63;79.57;101548.72;5020660;28;20057;-73
2023/05/01 05:12:03;;;;;;;3.45;3.15;;;;;;;10.64;79.95;101551.28;5018256;28;20049;-73
2023/05/01 05:14:28;;;;;;;3.13;2.83;;;;;;;10.62;79.90;101542.59;5017391;28;20069;-73
2023/05/01 05:16:54;;;;;;;3.40;3.10;;;;;;;10.65;79.61;101554.75;5018823;28;20348;-73
2023/05/01 05:19:19;;;;;;;5.50;3.00;;;;;;;10.64;79.75;101546.06;5019069;28;20112;-73
2023/05/01 05:21:44;;;;;;;10.65;3.72;;;;;;;10.65;79.48;101549.53;5017112;28;20038;-73
2023/05/01 05:24:10;;;;;;;4.25;3.58;;;;;;;10.64;79.67;101553.03;5018725;28;20042;-73
2023/05/01 05:26:35;;;;;;;8.38;3.58;;;;;;;10.63;79.70;101553.94;5018557;28;20271;-73
2023/05/01 05:29:01;;;;;;;4.65;3.00;;;;;;;10.62;79.89;101550.44;5019339;28;20033;-73
2023/05/01 05:31:26;;;;;;;4.72;2.92;;;;;;;10.62;79.97;101557.47;5018603;28;20045;-73
2023/05/01 05:33:52;;;;;;;4.55;2.90;;;;;;;10.65;79.74;101554.75;5017308;28;20049;-73
2023/05/01 05:36:17;;;;;;;4.85;3.65;;;;;;;10.66;79.52;101548.59;5018747;28;20050;-73
2023/05/01 05:38:42;;;;;;;3.40;3.10;;;;;;;10.68;79.80;101546.81;5018586;28;20192;-73
2023/05/01 05:41:08;;;;;;;3.67;3.38;;;;;;;10.69;79.88;101551.13;5018549;28;20218;-73
2023/05/01 05:43:33;;;;;;;3.83;3.42;;;;;;;10.71;79.61;101554.56;5018626;28;20050;-73
2023/05/01 05:45:59;;;;;;;4.43;3.70;;;;;;;10.70;79.59;101551.09;5018678;28;20046;-73
2023/05/01 05:48:25;;;;;;;4.55;2.92;;;;;;;10.71;79.55;101550.22;5018822;28;20295;-73
2023/05/01 05:50:51;;;;;;;11.25;3.50;;;;;;;10.70;79.30;101545.00;5018263;28;20332;-73
2023/05/01 05:53:18;;;;;;;4.07;3.38;;;;;;;10.71;79.49;101549.31;5018353;28;20033;-73
2023/05/01 05:55:44;;;;;;;9.55;4.25;;;;;;;10.72;79.38;101544.03;5018185;28;20068;-73
2023/05/01 05:58:10;;;;;;;4.43;3.50;;;;;;;10.72;79.23;101537.94;5018104;28;20063;-73
2023/05/01 06:00:35;;;;;;;4.32;2.95;;;;;;;10.72;79.31;101533.56;5018044;28;20061;-74
2023/05/01 06:03:01;;;;;;;3.72;3.20;;;;;;;10.73;79.17;101531.78;5016648;28;20064;-74
2023/05/01 06:05:27;;;;;;;4.32;3.88;;;;;;;10.73;79.28;101530.06;5017318;28;20088;-73
2023/05/01 06:07:52;;;;;;;6.40;3.78;;;;;;;10.74;78.66;101530.91;5017234;28;20042;-73
2023/05/01 06:10:18;;;;;;;4.07;3.72;;;;;;;10.75;78.68;101528.25;5017655;28;20041;-73
2023/05/01 06:12:43;;;;;;;4.30;3.30;;;;;;;10.76;78.97;101529.09;5017129;28;20044;-73
2023/05/01 06:15:09;;;;;;;7.70;3.78;;;;;;;10.75;78.57;101523.00;5017082;28;20344;-73
2023/05/01 06:17:36;;;;;;;6.18;3.30;;;;;;;10.79;78.49;101528.13;5017556;28;20039;-73
2023/05/01 06:20:04;;;;;;;8.02;3.67;;;;;;;10.78;77.87;101532.50;5013251;28;20065;-74
2023/05/01 06:22:30;;;;;;;3.85;3.55;;;;;;;10.79;77.81;101534.25;5014486;28;20025;-73
2023/05/01 06:24:56;;;;;;;4.22;3.45;;;;;;;10.77;77.92;101530.81;5013963;28;20033;-73
2023/05/01 06:27:21;;;;;;;3.78;3.38;;;;;;;10.78;77.86;101529.91;5016531;28;20909;-74
2023/05/01 06:29:46;;;;;;;8.38;3.75;;;;;;;10.80;78.28;101527.22;5015332;28;20107;-73
2023/05/01 06:32:12;;;;;;;5.45;3.70;;;;;;;10.80;78.10;101533.31;5017480;28;20038;-73
2023/05/01 06:34:37;;;;;;;5.45;3.80;;;;;;;10.82;78.01;101531.50;5018996;28;20045;-73
2023/05/01 06:37:04;;;;;;;6.40;3.95;;;;;;;10.84;78.08;101532.34;5017063;28;20033;-73
2023/05/01 06:39:29;;;;;;;7.43;4.00;;;;;;;10.84;77.90;101534.97;5017621;28;20046;-74
2023/05/01 06:41:55;;;;;;;6.03;3.25;;;;;;;10.85;77.94;101541.91;5017832;28;20044;-73
2023/05/01 06:44:20;;;;;;;7.68;4.07;;;;;;;10.85;77.55;101547.16;5017528;28;20091;-73
2023/05/01 06:46:46;;;;;;;4.20;3.10;;;;;;;10.88;77.84;101538.34;5016745;28;20370;-73
2023/05/01 06:49:11;;;;;;;6.15;3.25;;;;;;;10.88;77.68;101539.19;5017608;28;20053;-73
2023/05/01 06:51:37;;;;;;;3.70;3.38;;;;;;;10.89;77.57;101534.81;5015887;28;20042;-73
2023/05/01 06:54:02;;;;;;;3.00;2.58;;;;;;;10.91;77.91;101544.34;5020446;28;20047;-73
2023/05/01 06:56:27;;;;;;;5.30;4.30;;;;;;;10.92;78.00;101539.97;5012680;28;20084;-73
2023/05/01 06:58:53;;;;;;;4.63;3.60;;;;;;;10.92;78.03;101538.19;5015607;28;20048;-73
2023/05/01 07:01:18;;;;;;;4.13;3.67;;;;;;;10.92;78.35;101540.81;5024503;28;20434;-73
2023/05/01 07:03:43;;;;;;;4.55;3.38;;;;;;;10.94;78.04;101544.25;5013069;28;20038;-74
2023/05/01 07:06:09;;;;;;;3.60;3.30;;;;;;;10.94;78.30;101540.78;5011976;28;20057;-74
2023/05/01 07:08:34;;;;;;;2.95;2.75;;;;;;;10.96;78.24;101546.81;5015957;28;20224;-74
2023/05/01 07:11:00;;;;;;;6.55;3.85;;;;;;;10.97;78.05;101537.19;5015210;28;20280;-73
2023/05/01 07:13:29;;;;;;;5.20;3.50;;;;;;;10.97;77.71;101550.28;5015442;28;20301;-73
2023/05/01 07:15:54;;;;;;;5.80;4.10;;;;;;;10.97;77.73;101545.94;5016970;28;20057;-73
2023/05/01 07:18:19;;;;;;;6.25;3.85;;;;;;;10.98;77.82;101541.53;5014435;28;20285;-73
2023/05/01 07:20:45;;;;;;;6.85;4.20;;;;;;;10.99;77.36;101557.22;5014490;28;20038;-73
2023/05/01 07:23:10;;;;;;;4.40;3.90;;;;;;;11.01;77.41;101546.69;5015325;28;20048;-73
2023/05/01 07:25:36;;;;;;;6.53;3.80;;;;;;;11.04;77.35;101541.34;5015252;28;20061;-73
2023/05/01 07:28:04;;;;;;;6.78;4.15;;;;;;;11.04;77.15;101542.22;5015879;28;20048;-73
2023/05/01 07:30:29;;;;;;;3.90;3.58;;;;;;;11.07;77.03;101541.25;5001594;28;20042;-73
2023/05/01 07:32:56;;;;;;;9.10;4.25;;;;;;;11.09;76.83;101544.66;5014814;28;20033;-73
2023/05/01 07:35:22;;;;;;;8.98;4.60;;;;;;;11.10;77.37;101539.38;5012550;28;20163;-73
2023/05/01 07:37:50;;;;;;;5.03;4.22;;;;;;;11.13;76.88;101546.28;5016487;28;20372;-73
2023/05/01 07:40:16;;;;;;;9.55;4.00;;;;;;;11.15;77.24;101544.47;5016405;28;20034;-73
2023/05/01 07:42:41;;;;;;;4.95;4.32;;;;;;;11.19;77.66;101548.72;5015567;28;20026;-74
2023/05/01 07:45:07;;;;;;;4.05;3.75;;;;;;;11.22;77.58;101543.38;5020058;28;20053;-73
2023/05/01 07:47:33;;;;;;;7.60;4.35;;;;;;;11.26;77.53;101542.38;5015162;28;20236;-73
2023/05/01 07:49:59;;;;;;;6.80;5.32;;;;;;;11.30;78.11;101541.38;5014779;28;20042;-74
2023/05/01 07:52:25;;;;;;;7.20;4.72;;;;;;;11.33;77.80;101536.03;5018352;28;20038;-74
2023/05/01 07:54:51;;;;;;;5.53;4.45;;;;;;;11.38;78.12;101535.00;5018147;28;20064;-74
2023/05/01 07:57:16;;;;;;;5.00;4.30;;;;;;;11.41;77.59;101537.53;5016172;28;20462;-74
2023/05/01 07:59:42;;;;;;;6.93;4.45;;;;;;;11.44;78.33;101543.56;5017689;28;20061;-73
2023/05/01 08:02:07;;;;;;;12.93;5.13;;;;;;;11.46;77.93;101538.22;5019423;28;20340;-73
2023/05/01 08:04:32;;;;;;;9.63;4.72;;;;;;;11.48;77.92;101541.69;5019787;28;20041;-74
2023/05/01 08:06:58;;;;;;;10.57;4.93;;;;;;;11.51;78.25;101538.94;5019049;28;20369;-74
2023/05/01 08:09:23;;;;;;;7.80;5.00;;;;;;;11.52;78.17;101541.50;5017596;28;20045;-74
2023/05/01 08:11:49;;;;;;;8.77;4.65;;;;;;;11.55;78.75;101547.56;5019010;28;20034;-74
2023/05/01 08:14:16;;;;;;;5.68;4.25;;;;;;;11.58;78.50;101550.09;5017616;28;20034;-73
2023/05/01 08:16:42;;;;;;;7.40;4.18;;;;;;;11.60;78.64;101546.50;5017891;28;20053;-74
2023/05/01 08:19:07;;;;;;;7.75;4.07;;;;;;;11.61;78.25;101550.84;5018247;28;20141;-74
2023/05/01 08:21:33;;;;;;;10.75;4.57;;;;;;;11.63;78.56;101558.66;5018306;28;20042;-74
2023/05/01 08:23:59;;;;;;;9.13;4.55;;;;;;;11.64;78.41;101552.50;5013700;28;20034;-74
2023/05/01 08:26:24;;;;;;;5.97;4.30;;;;;;;11.63;78.54;101554.28;5011686;28;20026;-74
2023/05/01 08:28:49;;;;;;;6.72;4.53;;;;;;;11.65;78.75;101554.22;5010819;28;20033;-74
2023/05/01 08:31:15;;;;;;;16.10;5.30;;;;;;;11.64;78.78;101556.00;5017953;28;20072;-74
2023/05/01 08:33:43;;;;;;;10.27;5.05;;;;;;;11.65;78.54;101560.31;5019749;28;20030;-74
2023/05/01 08:36:09;;;;;;;13.05;5.10;;;;;;;11.65;78.52;101559.47;5018670;28;20037;-74
2023/05/01 08:38:38;;;;;;;10.55;4.97;;;;;;;11.65;78.76;101560.31;5019347;28;20217;-74
2023/05/01 08:41:03;;;;;;;11.85;5.25;;;;;;;11.66;78.73;101571.66;5019690;28;20033;-74
2023/05/01 08:43:32;;;;;;;13.63;5.28;;;;;;;11.65;79.03;101568.19;5019215;28;20248;-74
2023/05/01 08:46:02;;;;;;;21.15;5.03;;;;;;;11.66;78.62;101577.78;5018262;28;20042;-74
2023/05/01 08:48:28;;;;;;;14.30;5.20;;;;;;;11.67;78.83;101573.41;5013451;28;20046;-74
2023/05/01 08:50:58;;;;;;;6.63;4.38;;;;;;;11.68;78.77;101577.75;5017718;28;20034;-74
2023/05/01 08:53:25;;;;;;;4.60;3.25;;;;;;;11.69;78.94;101577.66;5019173;28;20041;-74
2023/05/01 08:55:51;;;;;;;3.88;3.30;;;;;;;11.70;78.88;101578.56;5018794;28;20050;-74
2023/05/01 08:58:18;;;;;;;21.02;5.65;;;;;;;11.72;79.57;101582.81;5018978;28;20050;-74
2023/05/01 09:00:45;;;;;;;18.40;5.72;;;;;;;11.73;79.95;101581.03;5015340;28;20056;-74
2023/05/01 09:03:14;;;;;;;14.20;5.32;;;;;;;11.75;79.78;101586.25;5018586;28;20034;-74
2023/05/01 09:05:40;;;;;;;7.25;4.47;;;;;;;11.76;79.79;101586.19;5018419;28;20092;-74
2023/05/01 09:08:05;;;;;;;6.50;4.65;;;;;;;11.79;79.52;101585.22;5020774;28;20029;-74
2023/05/01 09:10:32;;;;;;;4.78;4.07;;;;;;;11.80;79.49;101585.19;5018844;28;20344;-74
2023/05/01 09:13:00;;;;;;;11.20;5.47;;;;;;;11.82;79.34;101593.00;5018676;28;20221;-74
2023/05/01 09:15:27;;;;;;;12.43;6.65;;;;;;;11.83;79.85;101590.34;5019269;28;20053;-74
2023/05/01 09:17:53;;;;;;;10.30;6.40;;;;;;;11.81;80.35;101589.53;5018989;28;20232;-74
2023/05/01 09:20:19;;;;;;;6.85;4.78;;;;;;;11.83;80.32;101595.59;5018249;28;20038;-74
2023/05/01 09:22:45;;;;;;;4.65;4.05;;;;;;;11.83;79.94;101598.22;5020951;28;20068;-74
2023/05/01 09:25:10;;;;;;;4.75;4.03;;;;;;;11.84;79.77;101601.69;5019220;28;20352;-74
2023/05/01 09:27:36;;;;;;;8.05;4.57;;;;;;;11.85;79.51;101604.25;5018123;28;20075;-74
2023/05/01 09:30:02;;;;;;;10.50;4.78;;;;;;;11.86;79.71;101610.34;5015624;28;20037;-74
2023/05/01 09:32:28;;;;;;;5.65;4.68;;;;;;;11.85;80.14;101611.28;5017999;28;20095;-74
2023/05/01 09:35:07;;;;;;;9.95;5.53;;;;;;;11.86;80.87;101613.88;5012621;28;20280;-74
2023/05/01 09:37:34;;;;;;;8.63;5.25;;;;;;;11.85;81.30;101613.91;5016159;28;20049;-74
2023/05/01 09:40:10;;;;;;;13.15;6.30;;;;;;;11.84;82.58;101617.44;5017568;28;20038;-74
2023/05/01 09:42:37;;;;;;;5.43;4.90;;;;;;;11.84;82.50;101620.06;5018158;28;20034;-74
2023/05/01 09:45:05;;;;;;;9.13;5.85;;;;;;;11.81;83.25;101614.94;5018203;28;20999;-74
2023/05/01 09:47:32;;;;;;;9.18;6.10;;;;;;;11.78;84.08;101613.25;5019091;28;20032;-74
2023/05/01 09:49:58;;;;;;;8.25;6.28;;;;;;;11.76;83.85;101619.47;5019706;28;20259;-74
2023/05/01 09:52:29;;;;;;;6.80;6.18;;;;;;;11.74;85.35;101624.75;5016714;28;20052;-74
2023/05/01 09:55:17;;;;;;;7.25;5.30;;;;;;;11.74;85.10;101627.38;5016324;28;20034;-74
2023/05/01 09:57:45;;;;;;;6.80;5.00;;;;;;;11.73;85.35;101630.91;5022309;28;20119;-74
2023/05/01 10:00:14;;;;;;;7.53;5.22;;;;;;;11.71;85.50;101628.34;5016476;28;20407;-74
2023/05/01 10:02:42;;;;;;;5.70;5.10;;;;;;;11.70;85.97;101631.88;5016440;28;20045;-74
2023/05/01 10:05:09;;;;;;;7.82;5.30;;;;;;;11.70;86.03;101636.28;5014393;28;20030;-74
2023/05/01 10:07:35;;;;;;;7.60;5.85;;;;;;;11.69;86.35;101629.28;5014360;28;20050;-74
2023/05/01 10:10:20;;;;;;;10.10;6.97;;;;;;;11.66;86.65;101624.13;5011505;28;20061;-74
2023/05/01 10:12:47;;;;;;;5.80;5.20;;;;;;;11.65;86.40;101619.81;5008147;28;20452;-74
2023/05/01 10:15:13;;;;;;;7.35;5.80;;;;;;;11.64;86.57;101620.72;5010746;28;20060;-74
2023/05/01 10:17:40;;;;;;;10.73;5.97;;;;;;;11.63;87.50;101621.63;5015374;28;20141;-74
2023/05/01 10:20:07;;;;;;;7.20;5.70;;;;;;;11.61;87.73;101611.19;5015892;28;20038;-74
2023/05/01 10:22:33;;;;;;;6.80;6.05;;;;;;;11.61;88.19;101616.44;5014323;28;20050;-74
2023/05/01 10:24:59;;;;;;;12.98;6.45;;;;;;;11.60;88.07;101624.34;5014685;28;20084;-74
2023/05/01 10:27:25;;;;;;;9.00;5.97;;;;;;;11.60;88.41;101632.22;5010968;28;20136;-74
2023/05/01 10:29:54;;;;;;;6.95;6.13;;;;;;;11.59;88.64;101626.13;5015959;28;20034;-74
2023/05/01 10:32:20;;;;;;;10.32;6.05;;;;;;;11.60;89.00;101627.81;5016554;28;20052;-74
2023/05/01 10:34:53;;;;;;;7.75;6.25;;;;;;;11.58;89.46;101618.31;5011536;28;20049;-74
2023/05/01 10:37:27;;;;;;;8.60;6.35;;;;;;;11.57;89.42;101625.31;5013447;28;20251;-74
2023/05/01 10:39:52;;;;;;;10.65;6.43;;;;;;;11.56;89.18;101622.75;5014219;28;20033;-74
2023/05/01 10:42:18;;;;;;;6.55;5.93;;;;;;;11.56;89.25;101620.97;5015551;28;20123;-74
2023/05/01 10:44:46;;;;;;;10.05;6.40;;;;;;;11.57;89.27;101622.69;5015893;28;20096;-74
2023/05/01 10:47:33;;;;;;;9.48;7.25;;;;;;;11.57;90.08;101627.06;5013689;28;20149;-74
2023/05/01 10:50:03;;;;;;;7.95;6.05;;;;;;;11.56;90.68;101623.59;5009856;28;20052;-74
2023/05/01 10:52:28;;;;;;;9.52;6.80;;;;;;;11.55;90.78;101624.53;5013395;28;20358;-74
2023/05/01 10:55:33;;;;;;;9.88;6.38;;;;;;;11.56;90.68;101626.22;5013843;28;20108;-74
2023/05/01 10:57:59;;;;;;;9.98;6.25;;;;;;;11.58;90.96;101632.28;5013759;28;20033;-74
2023/05/01 11:00:24;;;;;;;10.07;6.93;;;;;;;11.58;91.29;101627.03;5014244;28;20112;-74
2023/05/01 11:02:50;;;;;;;12.02;7.03;;;;;;;11.59;91.27;101625.25;5012500;28;20048;-74
2023/05/01 11:05:15;;;;;;;6.88;5.88;;;;;;;11.62;91.02;101630.41;5013442;28;20047;-74
2023/05/01 11:07:41;;;;;;;10.32;6.85;;;;;;;11.63;90.88;101619.88;5015368;28;20279;-74
2023/05/01 11:10:24;;;;;;;9.68;6.78;;;;;;;11.68;90.71;101619.72;5016812;28;20076;-74
2023/05/01 11:12:51;;;;;;;9.15;6.25;;;;;;;11.72;91.57;101623.97;5016379;28;20037;-74
2023/05/01 11:15:31;;;;;;;11.50;7.95;;;;;;;11.73;92.13;101620.41;5022447;28;20053;-74
2023/05/01 11:17:58;;;;;;;9.77;7.03;;;;;;;11.76;92.22;101619.47;5009084;28;20330;-74
2023/05/01 11:20:23;;;;;;;7.07;6.22;;;;;;;11.79;92.38;101614.97;5012349;28;20331;-74
2023/05/01 11:22:53;;;;;;;13.32;7.50;;;;;;;11.83;91.51;101619.22;5017883;28;20037;-74
2023/05/01 11:25:25;;;;;;;10.07;6.90;;;;;;;11.85;91.94;101620.00;5011827;28;20116;-74